首页
METAR-TAF:

METAR-TAF

机场 :

苏丹阿末沙机场

关丹, 马来西亚

纬度: 03-37N, 经度: 103-13E, 海拔: 18米

当前天气观测

该预报发布于1小时和13分钟前的16:00 UTC
风速5节,风向北转西北,在西北转东北之间变化
温度 25°C
湿度 94%
气压 1012 hPa
能見度: 4500
少量云层高于900英尺
少量云层高于1600英尺, 积雨云.
散云层高于2400英尺
多云层高于26000英尺
雷暴, 小雨

METAR: WMKD 121600Z 33005KT 280V020 4500 -TSRA FEW009 FEW016CB SCT024 BKN260 25/24 Q1012 NOSIG

时间: 01:13 (17:13 UTC)


TAF: 丢失

超过4000个机场的气象观测和天气预报(METAR&TAF报告)。

可查询的气象台以黄色和红色小点在地图上表示。

将鼠标移到小点上方,可查看气象台名称。

然后点击查看天气观测和预报。

如需切换地图:点击带黑十字的绿色按钮放大地图;点击带横线的绿色按钮缩小地图;或者点击绿色箭头查看邻近地区的地图。


METAR-TAF: